Snover, Michigan
Current Conditions -  °F | °C
As of 11:18 AM on Wednesday 22 Oct 2014 (Local Time) from KBAX Reporting Station
Overcast Overcast  
Wind Chill: 43°   Ceiling: 1900
Heat Index: 46°   Visibility: 10mi
Dew Point: 41°   Wind: 6mph
Humidity: 82%   Direction: 30°NNE
Pressure: 30.37"   Gusts: NA
Location:  43.46°N, 82.97°W
Report Text: KBAX 221518Z AUTO 03005KT 10SM OVC019 08/05 A3037 RMK AO2 T00770048
Loading
Personal Weather Stations






























Interactive Weather Map
Tropical Storm Tracking
New forecast layout! Learn more

10-Day Weather Forecast

Advertisements
Track Severe Weather on mobile